Latest Coastal Weather Observations for Dennes Point

IDT60701

Issued at 9:52 am EDT Monday 1 March 2021 (issued every 10 minutes, with the page automatically refreshed every 10 minutes)

About coastal observations | Map of coastal stations | Coastal observations for TAS | Marine services | Other Formats
Station Details ID: 094255 Name: DENNES POINT Lat: -43.06 Lon: 147.36 Height: 5.67 m
Data from the previous 72 hours. | See also: Recent months at Dennes Point
Date/Time
EDT
Wind Sea
Height
m
Swell Vis
km
Cloud Weather Temp
°C
Press
MSL
hPa
Rain since
9am
mm
Dir  Spd
kts
Gust
kts
Height
m
Period
s
Dir
01/09:30am SSW 2 3 - - - - - - - 15.8 1005.8 0.0
01/09:00am SW 3 4 - - - - - - - 15.3 1005.9 0.4
01/08:30am SW 2 3 - - - - - - - 15.2 1006.0 0.4
01/08:00am CALM 0 0 - - - - - - - 15.2 1006.0 0.4
01/07:30am S 1 2 - - - - - - - 14.9 1006.2 0.4
01/07:00am SW 2 3 - - - - - - - 14.6 1006.6 0.4
01/06:30am SSW 2 3 - - - - - - - 14.6 1006.2 0.4
01/06:00am WSW 2 2 - - - - - - - 14.7 1006.4 0.4
01/05:30am WSW 1 2 - - - - - - - 14.8 1006.6 0.4
01/05:00am CALM 0 2 - - - - - - - 14.7 1006.8 0.4
01/04:30am CALM 0 0 - - - - - - - 15.4 1006.9 0.2
01/04:00am SSW 3 3 - - - - - - - 15.2 1007.4 0.0
01/03:30am WSW 2 3 - - - - - - - 15.4 1007.8 0.0
01/03:00am S 2 3 - - - - - - - 15.5 1007.8 0.0
01/02:30am SSW 1 2 - - - - - - - 15.5 1008.3 0.0
01/02:00am SSW 2 2 - - - - - - - 15.3 1008.7 0.0
01/01:30am SW 2 3 - - - - - - - 15.4 1009.1 0.0
01/01:00am SSW 2 2 - - - - - - - 15.5 1009.3 0.0
01/12:30am SSW 3 4 - - - - - - - 15.6 1009.6 0.0
01/12:00am SSW 4 4 - - - - - - - 15.7 1010.2 0.0
 
Date/Time
EDT
Wind Sea
Height
m
Swell Vis
km
Cloud Weather Temp
°C
Press
MSL
hPa
Rain since
9am
mm
Dir  Spd
kts
Gust
kts
Height
m
Period
s
Dir
28/11:30pm SW 3 4 - - - - - - - 15.7 1010.5 0.0
28/11:00pm SSW 2 3 - - - - - - - 15.7 1010.6 0.0
28/10:30pm SW 3 4 - - - - - - - 15.8 1010.9 0.0
28/10:00pm SW 3 4 - - - - - - - 15.9 1011.2 0.0
28/09:30pm SSW 2 4 - - - - - - - 16.0 1011.4 0.0
28/09:00pm S 3 7 - - - - - - - 16.1 1011.4 0.0
28/08:30pm SE 3 5 - - - - - - - 16.2 1011.2 0.0
28/08:00pm SSE 3 5 - - - - - - - 16.3 1011.1 0.0
28/07:30pm SSE 4 6 - - - - - - - 16.4 1011.1 0.0
28/07:00pm SE 5 7 - - - - - - - 16.4 1010.9 0.0
28/06:30pm SE 5 7 - - - - - - - 17.0 1010.9 0.0
28/06:00pm ESE 7 9 - - - - - - - 17.4 1010.9 0.0
28/05:30pm ESE 8 12 - - - - - - - 17.9 1010.7 0.0
28/05:00pm SE 7 11 - - - - - - - 17.6 1010.8 0.0
28/04:30pm ESE 10 13 - - - - - - - 17.4 1010.8 0.0
28/04:00pm SE 9 13 - - - - - - - 19.4 1010.8 0.0
28/03:30pm ESE 13 17 - - - - - - - 19.0 1010.8 0.0
28/03:00pm ESE 11 15 - - - - - - - 19.0 1011.2 0.0
28/02:30pm ESE 12 15 - - - - - - - 18.9 1011.3 0.0
28/02:00pm ESE 9 11 - - - - - - - 19.7 1011.7 0.0
28/01:30pm ESE 8 10 - - - - - - - 19.5 1011.9 0.0
28/01:00pm ESE 7 9 - - - - - - - 19.0 1012.1 0.0
28/12:30pm E 6 8 - - - - - - - 19.0 1012.5 0.0
28/12:00pm E 5 6 - - - - - - - 18.4 1012.9 0.0
28/11:30am E 4 5 - - - - - - - 17.5 1013.1 0.0
28/11:00am E 3 5 - - - - - - - 16.9 1013.3 0.0
28/10:30am NNE 2 3 - - - - - - - 17.0 1013.5 0.0
28/10:00am N 1 2 - - - - - - - 15.7 1013.7 0.0
28/09:30am W 3 5 - - - - - - - 15.6 1013.7 0.0
28/09:00am WSW 4 5 - - - - - - - 14.5 1013.8 0.0
28/08:30am SW 3 4 - - - - - - - 13.7 1013.7 0.0
28/08:00am SW 4 5 - - - - - - - 12.6 1013.7 0.0
28/07:30am SSW 6 7 - - - - - - - 11.6 1013.6 0.0
28/07:00am SSW 5 6 - - - - - - - 11.5 1013.2 0.0
28/06:30am SSW 5 7 - - - - - - - 11.4 1013.1 0.0
28/06:00am SSW 4 4 - - - - - - - 11.0 1013.2 0.0
28/05:30am SSW 4 5 - - - - - - - 11.9 1013.2 0.0
28/05:00am SSW 5 5 - - - - - - - 11.9 1013.3 0.0
28/04:30am S 5 6 - - - - - - - 12.3 1013.5 0.0
28/04:00am S 5 5 - - - - - - - 12.6 1013.8 0.0
28/03:30am SSW 4 4 - - - - - - - 12.8 1013.6 0.0
28/03:00am SSW 3 4 - - - - - - - 13.0 1013.6 0.0
28/02:30am SW 3 5 - - - - - - - 13.6 1013.7 0.0
28/02:00am WSW 6 8 - - - - - - - 13.8 1014.1 0.0
28/01:30am SW 4 5 - - - - - - - 13.6 1014.2 0.0
28/01:00am SSW 4 6 - - - - - - - 13.5 1014.3 0.0
28/12:30am SW 3 5 - - - - - - - 13.4 1014.5 0.0
28/12:00am WSW 4 6 - - - - - - - 13.1 1014.6 0.0
 
Date/Time
EDT
Wind Sea
Height
m
Swell Vis
km
Cloud Weather Temp
°C
Press
MSL
hPa
Rain since
9am
mm
Dir  Spd
kts
Gust
kts
Height
m
Period
s
Dir
27/11:30pm SSW 2 3 - - - - - - - 12.7 1014.7 0.0
27/11:00pm SW 4 4 - - - - - - - 12.7 1015.0 0.0
27/10:30pm SSW 3 4 - - - - - - - 12.5 1015.0 0.0
27/10:00pm SSW 3 4 - - - - - - - 12.8 1015.2 0.0
27/09:30pm SW 3 4 - - - - - - - 12.9 1015.4 0.0
27/09:00pm S 2 2 - - - - - - - 13.2 1015.2 0.0
27/08:30pm SSW 2 2 - - - - - - - 13.3 1015.0 0.0
27/08:00pm SSE 3 5 - - - - - - - 14.1 1014.8 0.0
27/07:30pm SE 4 6 - - - - - - - 14.6 1014.4 0.0
27/07:00pm SE 4 7 - - - - - - - 14.9 1014.2 0.0
27/06:30pm SE 5 7 - - - - - - - 15.1 1014.0 0.0
27/06:00pm ESE 7 11 - - - - - - - 15.6 1013.9 0.0
27/05:30pm SE 7 10 - - - - - - - 16.6 1013.9 0.0
27/05:00pm ESE 7 10 - - - - - - - 16.6 1014.0 0.0
27/04:30pm ESE 7 10 - - - - - - - 15.9 1014.0 0.0
27/04:00pm ESE 8 11 - - - - - - - 16.4 1014.0 0.0
27/03:30pm ESE 8 11 - - - - - - - 16.6 1014.3 0.0
27/03:00pm ESE 8 11 - - - - - - - 17.8 1014.3 0.0
27/02:30pm ESE 8 10 - - - - - - - 16.8 1014.8 0.0
27/02:00pm ESE 6 9 - - - - - - - 17.6 1014.9 0.0
27/01:30pm E 5 7 - - - - - - - 16.9 1015.3 0.0
27/01:00pm E 6 8 - - - - - - - 17.1 1015.4 0.0
27/12:30pm E 6 8 - - - - - - - 16.7 1015.5 0.0
27/12:00pm E 5 8 - - - - - - - 16.2 1015.8 0.0
27/11:30am E 4 6 - - - - - - - 16.7 1016.2 0.0
27/11:00am NNE 1 2 - - - - - - - 17.1 1016.4 0.0
27/10:30am SW 4 5 - - - - - - - 15.2 1016.5 0.0
27/10:00am W 5 6 - - - - - - - 15.3 1016.8 0.0
27/09:30am WSW 4 6 - - - - - - - 14.8 1016.8 0.0
27/09:00am SW 4 6 - - - - - - - 14.2 1016.8 1.2
27/08:30am SW 5 7 - - - - - - - 14.1 1016.7 1.2
27/08:00am SW 6 9 - - - - - - - 13.7 1016.3 1.2
27/07:30am SW 6 8 - - - - - - - 13.5 1016.0 1.2
27/07:00am SW 6 7 - - - - - - - 13.4 1015.9 1.2
27/06:30am SSW 4 6 - - - - - - - 13.1 1015.7 1.2
27/06:00am SSW 6 9 - - - - - - - 13.2 1015.4 1.2
27/05:30am SSW 6 8 - - - - - - - 13.3 1015.5 1.2
27/05:00am SW 7 12 - - - - - - - 13.6 1015.5 1.2
27/04:30am SW 8 11 - - - - - - - 13.5 1015.5 1.2
27/04:00am SW 5 11 - - - - - - - 13.5 1015.6 1.2
27/03:30am SSW 5 7 - - - - - - - 13.4 1015.9 1.2
27/03:00am WSW 8 11 - - - - - - - 13.6 1015.9 1.2
27/02:30am SW 5 7 - - - - - - - 13.4 1016.2 1.2
27/02:00am WSW 9 11 - - - - - - - 13.4 1016.4 1.2
27/01:30am WSW 7 10 - - - - - - - 13.7 1016.5 1.2
27/01:00am SW 6 10 - - - - - - - 13.8 1016.3 1.2
27/12:30am SSW 7 10 - - - - - - - 13.7 1016.2 1.2
27/12:00am SSW 7 10 - - - - - - - 13.8 1016.2 1.2
 
Date/Time
EDT
Wind Sea
Height
m
Swell Vis
km
Cloud Weather Temp
°C
Press
MSL
hPa
Rain since
9am
mm
Dir  Spd
kts
Gust
kts
Height
m
Period
s
Dir
26/11:30pm SSW 6 10 - - - - - - - 13.8 1016.1 1.2
26/11:00pm S 8 11 - - - - - - - 13.6 1016.3 1.2
26/10:30pm SSW 5 8 - - - - - - - 12.8 1016.3 1.0
26/10:00pm SSW 5 7 - - - - - - - 14.0 1016.4 1.0
26/09:30pm SSW 7 11 - - - - - - - 14.1 1016.3 1.0
26/09:00pm SW 9 13 - - - - - - - 14.4 1015.6 1.0
26/08:30pm SSW 6 9 - - - - - - - 14.0 1015.1 1.0
26/08:00pm SSW 9 14 - - - - - - - 13.9 1014.6 1.0
26/07:30pm SSW 9 15 - - - - - - - 14.4 1014.2 1.0
26/07:00pm SSW 10 17 - - - - - - - 15.5 1014.0 1.0
26/06:30pm SSW 12 16 - - - - - - - 15.6 1013.9 1.0
26/06:00pm S 12 17 - - - - - - - 16.2 1013.7 1.0
26/05:30pm SSW 13 19 - - - - - - - 15.7 1013.6 1.0
26/05:00pm SSW 14 22 - - - - - - - 17.6 1013.2 1.0
26/04:30pm SSW 15 23 - - - - - - - 17.9 1012.9 1.0
26/04:00pm SSW 14 20 - - - - - - - 18.2 1012.6 1.0
26/03:30pm SSW 13 19 - - - - - - - 19.0 1012.5 1.0
26/03:00pm SSW 14 19 - - - - - - - 18.0 1012.4 1.0
26/02:30pm S 12 19 - - - - - - - 17.5 1012.3 1.0
26/02:00pm SSW 12 20 - - - - - - - 17.8 1012.2 1.0
26/01:30pm SW 15 23 - - - - - - - 17.1 1011.9 1.0
26/01:00pm SW 15 20 - - - - - - - 17.0 1011.6 1.0
26/12:30pm SSW 13 20 - - - - - - - 16.6 1011.7 1.0
26/12:00pm SW 14 20 - - - - - - - 17.2 1011.4 1.0
26/11:30am SW 12 20 - - - - - - - 15.7 1011.4 1.0
26/11:00am SW 13 18 - - - - - - - 14.6 1011.2 1.0
26/10:30am WSW 13 18 - - - - - - - 14.1 1010.7 1.0
26/10:00am SW 13 17 - - - - - - - 13.3 1010.2 1.0

Other formats

Comma delimited format used in spreadsheet applications
http://www.bom.gov.au/fwo/IDT60701/IDT60701.94988.axf

JavaScript Object Notation format (JSON) in row-major order
http://www.bom.gov.au/fwo/IDT60701/IDT60701.94988.json

Data quality

Most of these data are generated automatically and are frequently updated. Quality checks on data are not normally performed. It is possible for incorrect values to appear. Refer to information at About Latest Weather Observations and please check the disclaimer before using these data.